Time;durP1;ratioP1;P1;durP2;ratioP2;P2;SDS_P1;SDS_P2;PMS_P1;PMS_P2;Temp;Humidity;BMP_temperature;BMP_pressure;BME280_temperature;BME280_humidity;BME280_pressure;Samples;Min_cycle;Max_cycle;Signal;HPM_P1;HPM_P2
2021/04/19 00:02:06;;;;;;;26.27;15.35;;;;;;;8.55;73.29;101671.97;5065243;28;20098;-51
2021/04/19 00:04:33;;;;;;;22.98;16.83;;;;;;;8.55;72.98;101673.94;5071416;28;20442;-51
2021/04/19 00:07:02;;;;;;;24.27;15.43;;;;;;;8.56;72.76;101673.63;5050812;28;20402;-51
2021/04/19 00:09:28;;;;;;;22.80;15.20;;;;;;;8.52;72.84;101671.78;5051668;28;20553;-46
2021/04/19 00:11:55;;;;;;;27.92;15.75;;;;;;;8.48;72.86;101676.28;5051523;28;20110;-47
2021/04/19 00:14:21;;;;;;;22.58;14.32;;;;;;;8.49;73.09;101667.72;5051278;28;20044;-47
2021/04/19 00:16:48;;;;;;;22.80;14.40;;;;;;;8.47;72.91;101658.91;5030719;28;20536;-48
2021/04/19 00:19:14;;;;;;;27.02;15.20;;;;;;;8.50;72.91;101662.97;5049427;28;20055;-47
2021/04/19 00:21:40;;;;;;;26.98;16.88;;;;;;;8.50;73.00;101661.03;5054669;28;21570;-46
2021/04/19 00:24:07;;;;;;;21.95;14.13;;;;;;;8.50;73.05;101663.81;5072823;28;20101;-50
2021/04/19 00:26:33;;;;;;;22.75;14.63;;;;;;;8.50;73.27;101651.94;5058644;28;20114;-49
2021/04/19 00:29:00;;;;;;;26.55;14.05;;;;;;;8.48;73.28;101648.69;5067690;28;20048;-48
2021/04/19 00:31:26;;;;;;;23.15;14.05;;;;;;;8.51;73.21;101642.56;5058001;28;20442;-49
2021/04/19 00:33:53;;;;;;;19.17;12.07;;;;;;;8.53;73.43;101648.56;5055109;28;20372;-48
2021/04/19 00:36:19;;;;;;;19.13;14.18;;;;;;;8.53;73.33;101643.06;5050959;28;20080;-48
2021/04/19 00:38:48;;;;;;;21.15;12.90;;;;;;;8.53;73.37;101640.28;5051031;28;20099;-47
2021/04/19 00:41:14;;;;;;;17.55;13.85;;;;;;;8.52;73.42;101638.69;5051216;28;20453;-49
2021/04/19 00:43:40;;;;;;;21.13;14.50;;;;;;;8.55;73.34;101632.53;5049377;28;20371;-51
2021/04/19 00:46:07;;;;;;;23.83;13.88;;;;;;;8.58;73.33;101643.75;5051376;28;20171;-47
2021/04/19 00:48:35;;;;;;;18.73;12.45;;;;;;;8.60;73.05;101632.44;5053367;28;20049;-48
2021/04/19 00:51:06;;;;;;;22.75;14.90;;;;;;;8.58;73.35;101637.41;5076211;28;20097;-47
2021/04/19 00:53:35;;;;;;;20.98;12.63;;;;;;;8.54;73.36;101637.25;5091543;28;20040;-47
2021/04/19 00:56:02;;;;;;;25.63;14.50;;;;;;;8.52;73.44;101633.16;5050891;28;20078;-48
2021/04/19 00:58:33;;;;;;;18.13;13.73;;;;;;;8.51;73.59;101626.00;5060173;28;20417;-47
2021/04/19 01:01:00;;;;;;;20.07;14.73;;;;;;;8.51;73.41;101626.81;5062567;28;20037;-48
2021/04/19 01:03:27;;;;;;;19.73;13.27;;;;;;;8.53;73.18;101618.22;5050891;28;20571;-48
2021/04/19 01:05:54;;;;;;;23.13;13.90;;;;;;;8.51;73.30;101603.91;5050982;28;20033;-46
2021/04/19 01:08:20;;;;;;;22.98;12.70;;;;;;;8.45;73.31;101605.16;5050739;28;20402;-49
2021/04/19 01:10:47;;;;;;;25.10;14.13;;;;;;;8.42;73.32;101603.00;5052765;28;20049;-47
2021/04/19 01:13:13;;;;;;;23.55;13.93;;;;;;;8.38;73.75;101605.59;5054427;28;20049;-46
2021/04/19 01:15:40;;;;;;;18.67;12.60;;;;;;;8.34;73.71;101603.75;5065291;28;20441;-46
2021/04/19 01:18:08;;;;;;;26.80;13.25;;;;;;;8.35;73.85;101610.91;5073605;28;20079;-47
2021/04/19 01:20:43;;;;;;;18.52;12.63;;;;;;;8.35;73.66;101606.19;5061787;28;20045;-46
2021/04/19 01:23:10;;;;;;;17.92;12.18;;;;;;;8.35;73.54;101597.91;5071910;28;20072;-47
2021/04/19 01:25:37;;;;;;;17.25;11.43;;;;;;;8.37;73.57;101608.63;5054569;28;20076;-48
2021/04/19 01:28:04;;;;;;;20.27;11.88;;;;;;;8.39;73.40;101607.19;5053789;28;20057;-47
2021/04/19 01:30:37;;;;;;;20.27;11.02;;;;;;;8.41;73.43;101606.91;5054289;28;20045;-47
2021/04/19 01:33:04;;;;;;;18.80;11.40;;;;;;;8.42;73.30;101605.75;5054068;28;20072;-49
2021/04/19 01:35:31;;;;;;;13.70;10.07;;;;;;;8.41;73.37;101598.63;5053854;28;20040;-46
2021/04/19 01:37:58;;;;;;;18.75;11.38;;;;;;;8.36;73.42;101607.84;5053769;28;20084;-48
2021/04/19 01:40:24;;;;;;;19.63;11.45;;;;;;;8.33;73.76;101608.47;5064168;28;20040;-49
2021/04/19 01:42:51;;;;;;;19.55;10.25;;;;;;;8.28;73.63;101602.22;5072057;28;20072;-47
2021/04/19 01:45:17;;;;;;;20.35;10.38;;;;;;;8.22;73.45;101601.50;5074099;28;20075;-47
2021/04/19 01:47:44;;;;;;;14.27;9.48;;;;;;;8.25;73.64;101602.81;5059396;28;20076;-48
2021/04/19 01:50:13;;;;;;;16.65;10.40;;;;;;;8.22;73.65;101597.91;5054127;28;20051;-48
2021/04/19 01:52:40;;;;;;;16.98;10.98;;;;;;;8.20;73.59;101597.41;5073686;28;20068;-47
2021/04/19 01:55:09;;;;;;;16.00;10.55;;;;;;;8.17;73.54;101598.03;5052221;28;20130;-51
2021/04/19 01:57:38;;;;;;;15.32;9.80;;;;;;;8.16;73.23;101593.63;5051961;28;20135;-50
2021/04/19 02:00:07;;;;;;;17.20;9.32;;;;;;;8.16;73.62;101588.09;5062151;28;20076;-50
2021/04/19 02:02:53;;;;;;;14.82;10.25;;;;;;;8.16;73.66;101597.19;5069806;28;20041;-47
2021/04/19 02:05:32;;;;;;;15.38;10.05;;;;;;;8.16;73.48;101583.41;5062154;28;20123;-47
2021/04/19 02:08:20;;;;;;;14.15;10.23;;;;;;;8.17;73.54;101586.97;5067338;28;20056;-46
2021/04/19 02:10:52;;;;;;;15.40;9.75;;;;;;;8.20;73.30;101591.88;5059919;28;20045;-46
2021/04/19 02:13:35;;;;;;;13.27;8.77;;;;;;;8.16;73.39;101588.09;5053434;28;20053;-48
2021/04/19 02:16:27;;;;;;;15.30;8.15;;;;;;;8.15;73.68;101595.59;5054497;28;20450;-47
2021/04/19 02:19:14;;;;;;;12.10;8.98;;;;;;;8.17;73.54;101600.78;5053399;28;20102;-47
2021/04/19 02:21:48;;;;;;;11.32;8.27;;;;;;;8.18;73.26;101596.91;5053166;28;20143;-49
2021/04/19 02:24:18;;;;;;;15.13;9.43;;;;;;;8.20;73.27;101598.22;5062533;28;20441;-49
2021/04/19 02:27:07;;;;;;;17.92;9.43;;;;;;;8.17;73.28;101592.50;5043214;28;20113;-46
2021/04/19 02:29:39;;;;;;;16.85;8.88;;;;;;;8.16;73.15;101590.84;5072904;28;20048;-46
2021/04/19 02:32:12;;;;;;;16.70;10.02;;;;;;;8.16;73.56;101594.44;5057005;28;20102;-48
2021/04/19 02:34:40;;;;;;;17.20;9.68;;;;;;;8.10;73.58;101592.13;5065807;28;20535;-47
2021/04/19 02:37:09;;;;;;;16.23;9.80;;;;;;;8.08;73.69;101599.84;5066372;28;20041;-46
2021/04/19 02:39:40;;;;;;;14.80;9.57;;;;;;;8.07;73.70;101592.72;5053201;28;20094;-46
2021/04/19 02:42:08;;;;;;;17.08;8.90;;;;;;;8.07;73.73;101590.78;5052056;28;20087;-46
2021/04/19 02:44:36;;;;;;;15.85;10.38;;;;;;;8.05;73.80;101592.22;5035411;28;20135;-50
2021/04/19 02:47:04;;;;;;;14.30;9.95;;;;;;;7.99;73.95;101580.47;5053118;28;20102;-48
2021/04/19 02:49:34;;;;;;;20.02;11.32;;;;;;;7.99;74.11;101580.47;5071152;28;20473;-48
2021/04/19 02:52:04;;;;;;;14.93;10.57;;;;;;;7.99;74.00;101575.75;5073258;28;20048;-50
2021/04/19 02:54:32;;;;;;;22.63;12.55;;;;;;;7.99;73.62;101570.25;5072455;28;20089;-48
2021/04/19 02:56:59;;;;;;;17.92;11.93;;;;;;;8.01;73.70;101566.38;5062184;28;20068;-46
2021/04/19 02:59:29;;;;;;;19.48;12.85;;;;;;;8.02;73.89;101562.50;5052599;28;20053;-47
2021/04/19 03:02:04;;;;;;;22.05;12.57;;;;;;;8.01;73.96;101567.19;5061414;28;20048;-48
2021/04/19 03:04:39;;;;;;;23.15;12.13;;;;;;;7.97;74.10;101566.16;5064910;28;20576;-48
2021/04/19 03:07:08;;;;;;;17.38;12.55;;;;;;;7.96;74.08;101565.38;5052881;28;20045;-47
2021/04/19 03:09:50;;;;;;;18.55;12.30;;;;;;;7.91;74.23;101557.22;5051742;28;20072;-49
2021/04/19 03:12:18;;;;;;;20.42;10.48;;;;;;;7.92;74.03;101567.09;5050699;28;20077;-46
2021/04/19 03:14:50;;;;;;;15.05;10.57;;;;;;;7.93;74.12;101565.97;5052120;28;20052;-47
2021/04/19 03:17:19;;;;;;;16.88;10.85;;;;;;;7.94;74.17;101567.59;5051714;28;20107;-48
2021/04/19 03:19:56;;;;;;;13.35;10.30;;;;;;;7.94;74.11;101566.81;5052019;28;20075;-47
2021/04/19 03:22:25;;;;;;;19.98;10.75;;;;;;;7.90;73.84;101572.09;5069891;28;20075;-48
2021/04/19 03:24:52;;;;;;;16.73;11.38;;;;;;;7.87;74.28;101561.69;5061225;28;20056;-48
2021/04/19 03:27:20;;;;;;;15.07;10.27;;;;;;;7.81;74.34;101568.41;5068345;28;20123;-52
2021/04/19 03:29:46;;;;;;;17.55;10.27;;;;;;;7.81;74.19;101562.91;5070410;28;20445;-47
2021/04/19 03:32:17;;;;;;;14.88;10.77;;;;;;;7.80;74.44;101565.97;5052858;28;20514;-48
2021/04/19 03:34:45;;;;;;;16.77;11.52;;;;;;;7.79;74.05;101559.66;5057220;28;20049;-48
2021/04/19 03:37:25;;;;;;;21.95;10.52;;;;;;;7.78;74.24;101563.50;5051780;28;20075;-49
2021/04/19 03:39:56;;;;;;;14.50;9.60;;;;;;;7.79;73.96;101565.16;5052266;28;20041;-47
2021/04/19 03:42:25;;;;;;;18.60;10.25;;;;;;;7.82;73.69;101563.72;5051603;28;20041;-47
2021/04/19 03:44:54;;;;;;;16.23;9.75;;;;;;;7.84;73.29;101555.97;5051767;28;20052;-47
2021/04/19 03:47:22;;;;;;;14.38;8.15;;;;;;;7.84;72.78;101550.44;5062073;28;20037;-47
2021/04/19 03:49:53;;;;;;;16.52;9.50;;;;;;;7.85;72.44;101549.34;5050203;28;20528;-47
2021/04/19 03:52:24;;;;;;;14.20;8.93;;;;;;;7.85;72.70;101555.66;5052471;28;20091;-47
2021/04/19 03:54:52;;;;;;;14.30;8.85;;;;;;;7.84;72.55;101548.50;5049664;28;20063;-48
2021/04/19 03:57:24;;;;;;;19.50;9.43;;;;;;;7.85;72.33;101549.34;5050638;28;20051;-49
2021/04/19 03:59:54;;;;;;;20.02;10.07;;;;;;;7.84;72.30;101543.00;5057039;28;20094;-48
2021/04/19 04:02:22;;;;;;;24.77;11.25;;;;;;;7.83;72.61;101537.81;5070595;28;20091;-46
2021/04/19 04:04:51;;;;;;;26.40;11.50;;;;;;;7.79;72.68;101543.09;5054800;28;20075;-49
2021/04/19 04:07:19;;;;;;;27.92;12.68;;;;;;;7.78;72.66;101552.50;5071693;28;20475;-50
2021/04/19 04:09:48;;;;;;;27.27;10.98;;;;;;;7.78;72.74;101546.97;5057659;28;20081;-46
2021/04/19 04:12:15;;;;;;;19.70;10.43;;;;;;;7.77;72.74;101545.34;5050790;28;20104;-50
2021/04/19 04:14:52;;;;;;;18.35;12.60;;;;;;;7.75;72.74;101533.00;5049422;28;20410;-51
2021/04/19 04:17:19;;;;;;;15.23;9.45;;;;;;;7.74;72.79;101537.69;5050972;28;20045;-52
2021/04/19 04:19:46;;;;;;;12.23;9.05;;;;;;;7.74;72.91;101537.69;5059087;28;20056;-51
2021/04/19 04:22:13;;;;;;;16.27;9.07;;;;;;;7.76;73.00;101538.19;5064105;28;20123;-47
2021/04/19 04:24:40;;;;;;;19.83;11.15;;;;;;;7.75;72.69;101542.09;5061840;28;20126;-52
2021/04/19 04:27:07;;;;;;;12.35;8.70;;;;;;;7.76;72.86;101532.69;5051378;28;20037;-48
2021/04/19 04:29:33;;;;;;;16.40;8.95;;;;;;;7.77;72.91;101528.00;5050995;28;20071;-50
2021/04/19 04:32:00;;;;;;;12.75;9.20;;;;;;;7.75;72.79;101531.06;5051030;28;20528;-52
2021/04/19 04:34:26;;;;;;;12.23;8.52;;;;;;;7.72;73.23;101519.84;5051394;28;20490;-50
2021/04/19 04:36:53;;;;;;;17.50;10.90;;;;;;;7.72;73.17;101526.19;5062721;28;20051;-48
2021/04/19 04:39:19;;;;;;;14.65;9.02;;;;;;;7.71;73.03;101526.47;5070490;28;20040;-47
2021/04/19 04:41:46;;;;;;;15.02;8.82;;;;;;;7.72;72.85;101519.84;5062463;28;20048;-53
2021/04/19 04:44:24;;;;;;;13.90;8.57;;;;;;;7.70;73.34;101516.56;5051316;28;20555;-46
2021/04/19 04:47:09;;;;;;;16.98;8.60;;;;;;;7.68;73.46;101518.81;5063948;28;20052;-47
2021/04/19 04:49:41;;;;;;;14.35;9.40;;;;;;;7.69;73.17;101526.78;5072922;28;20119;-46
2021/04/19 04:52:10;;;;;;;;;;;;;;;7.64;73.42;101521.38;5083621;28;20044;-46
2021/04/19 04:54:39;;;;;;;12.38;8.35;;;;;;;7.67;72.97;101515.25;5071764;28;19971;-47
2021/04/19 04:57:06;;;;;;;18.83;8.77;;;;;;;7.65;72.95;101514.72;5054926;28;20049;-49
2021/04/19 04:59:33;;;;;;;10.80;8.00;;;;;;;7.64;73.36;101510.34;5053311;28;20049;-51
2021/04/19 05:01:59;;;;;;;12.02;8.32;;;;;;;7.66;73.08;101515.53;5054095;28;20394;-47
2021/04/19 05:04:28;;;;;;;11.80;7.72;;;;;;;7.64;73.32;101510.34;5065002;28;20040;-48
2021/04/19 05:06:55;;;;;;;16.65;9.07;;;;;;;7.66;73.38;101516.38;5074685;28;20087;-48
2021/04/19 05:09:21;;;;;;;12.77;9.05;;;;;;;7.64;73.36;101513.09;5060864;28;20045;-50
2021/04/19 05:11:47;;;;;;;14.52;8.23;;;;;;;7.68;73.37;101513.28;5054575;28;20087;-46
2021/04/19 05:14:14;;;;;;;11.48;7.57;;;;;;;7.68;73.21;101519.63;5053032;28;20552;-46
2021/04/19 05:16:41;;;;;;;22.48;11.52;;;;;;;7.68;73.10;101525.13;5054296;28;20041;-48
2021/04/19 05:19:08;;;;;;;14.52;9.85;;;;;;;7.67;73.13;101529.03;5053591;28;20565;-47
2021/04/19 05:21:36;;;;;;;15.60;9.35;;;;;;;7.66;73.49;101521.88;5058522;28;20045;-47
2021/04/19 05:24:02;;;;;;;14.00;9.32;;;;;;;7.67;73.47;101531.78;5072770;28;20045;-49
2021/04/19 05:26:30;;;;;;;14.88;9.57;;;;;;;7.69;73.55;101525.97;5054258;28;20415;-48
2021/04/19 05:28:57;;;;;;;13.70;9.07;;;;;;;7.68;73.67;101530.66;5054102;28;20510;-46
2021/04/19 05:31:23;;;;;;;15.57;9.75;;;;;;;7.70;73.51;101528.44;5053721;28;20563;-49
2021/04/19 05:33:54;;;;;;;15.63;9.10;;;;;;;7.73;73.86;101527.78;5053723;28;20069;-47
2021/04/19 05:36:26;;;;;;;17.45;9.82;;;;;;;7.75;73.67;101533.84;5052606;28;20490;-48
2021/04/19 05:38:53;;;;;;;14.95;8.63;;;;;;;7.77;73.57;101528.81;5054660;28;20049;-48
2021/04/19 05:41:21;;;;;;;12.48;9.65;;;;;;;7.78;73.63;101529.66;5053832;28;20095;-49
2021/04/19 05:43:48;;;;;;;13.43;8.48;;;;;;;7.79;73.75;101529.31;5060797;28;20090;-47
2021/04/19 05:46:16;;;;;;;15.13;9.52;;;;;;;7.79;73.73;101528.50;5066727;28;20494;-49
2021/04/19 05:48:43;;;;;;;16.27;9.50;;;;;;;7.78;73.79;101516.66;5053572;28;20398;-47
2021/04/19 05:51:38;;;;;;;11.80;8.80;;;;;;;7.79;73.70;101526.56;5059912;28;20131;-50
2021/04/19 05:54:05;;;;;;;14.63;9.15;;;;;;;7.80;73.63;101527.38;5061269;28;20049;-49
2021/04/19 05:56:53;;;;;;;13.63;8.68;;;;;;;7.76;73.79;101531.88;5071908;28;20494;-48
2021/04/19 05:59:30;;;;;;;13.68;8.25;;;;;;;7.77;73.79;101520.56;5053681;28;20064;-48
2021/04/19 06:01:58;;;;;;;17.10;9.18;;;;;;;7.79;73.84;101523.00;5065448;28;20075;-51
2021/04/19 06:04:46;;;;;;;13.65;9.18;;;;;;;7.80;73.63;101519.94;5072387;28;20040;-47
2021/04/19 06:07:20;;;;;;;13.10;8.90;;;;;;;7.82;73.81;101519.63;5053062;28;20045;-46
2021/04/19 06:10:07;;;;;;;15.15;9.98;;;;;;;7.84;73.80;101523.69;5071419;28;20456;-49
2021/04/19 06:12:36;;;;;;;17.13;9.45;;;;;;;7.89;73.74;101518.06;5055788;28;20434;-48
2021/04/19 06:15:09;;;;;;;15.07;9.43;;;;;;;7.93;73.84;101515.53;5057512;28;20044;-47
2021/04/19 06:17:42;;;;;;;14.07;9.93;;;;;;;7.94;73.82;101517.97;5053252;28;20437;-51
2021/04/19 06:20:11;;;;;;;14.80;10.00;;;;;;;7.97;73.71;101520.09;5053463;28;20107;-48
2021/04/19 06:22:38;;;;;;;18.13;10.98;;;;;;;7.99;73.56;101515.09;5066621;28;20372;-48
2021/04/19 06:25:05;;;;;;;16.58;10.50;;;;;;;8.06;73.63;101524.91;5052896;28;20422;-48
2021/04/19 06:27:31;;;;;;;14.85;10.45;;;;;;;8.08;73.71;101525.41;5053161;28;20041;-46
2021/04/19 06:30:11;;;;;;;15.40;10.38;;;;;;;8.10;73.47;101528.69;5056959;28;20041;-48
2021/04/19 06:32:39;;;;;;;18.05;9.85;;;;;;;8.15;73.71;101529.38;5056336;28;20044;-46
2021/04/19 06:35:07;;;;;;;13.30;9.27;;;;;;;8.18;73.54;101528.75;5067792;28;20486;-50
2021/04/19 06:37:33;;;;;;;18.75;9.63;;;;;;;8.20;73.54;101521.00;5051404;28;20048;-46
2021/04/19 06:39:59;;;;;;;14.75;9.73;;;;;;;8.22;73.71;101518.75;5052688;28;20057;-48
2021/04/19 06:42:27;;;;;;;16.23;10.52;;;;;;;8.23;73.71;101519.56;5051773;28;20387;-47
2021/04/19 06:44:54;;;;;;;15.73;9.85;;;;;;;8.23;73.64;101525.06;5052407;28;20071;-50
2021/04/19 06:47:21;;;;;;;13.02;8.88;;;;;;;8.23;73.65;101525.06;5061882;28;20090;-46
2021/04/19 06:49:49;;;;;;;15.07;9.35;;;;;;;8.26;73.72;101533.53;5058892;28;20083;-50
2021/04/19 06:52:17;;;;;;;19.60;9.95;;;;;;;8.33;73.97;101524.88;5081102;28;20436;-49
2021/04/19 06:54:44;;;;;;;20.42;9.73;;;;;;;8.37;73.74;101525.88;5066855;28;20041;-50
2021/04/19 06:57:13;;;;;;;18.35;12.13;;;;;;;8.41;73.70;101535.16;5071147;28;20075;-48
2021/04/19 06:59:44;;;;;;;15.38;10.68;;;;;;;8.47;73.67;101525.66;5059383;28;20044;-51
2021/04/19 07:02:20;;;;;;;17.75;10.25;;;;;;;8.54;73.70;101529.59;5052815;28;20072;-53
2021/04/19 07:04:54;;;;;;;18.40;10.85;;;;;;;8.59;73.77;101531.41;5052046;28;20111;-48
2021/04/19 07:07:29;;;;;;;20.52;11.30;;;;;;;8.64;73.70;101523.00;5055906;28;20079;-52
2021/04/19 07:09:57;;;;;;;21.60;11.13;;;;;;;8.72;73.59;101527.78;5064182;28;20045;-47
2021/04/19 07:12:25;;;;;;;18.50;10.00;;;;;;;8.78;73.53;101526.53;5049815;28;20052;-50
2021/04/19 07:14:55;;;;;;;17.63;10.18;;;;;;;8.88;73.40;101530.97;5065168;28;20041;-49
2021/04/19 07:17:22;;;;;;;16.58;10.32;;;;;;;8.97;73.17;101523.56;5064552;28;20049;-54
2021/04/19 07:19:50;;;;;;;18.45;10.25;;;;;;;9.05;73.23;101523.59;5057641;28;20080;-46
2021/04/19 07:22:17;;;;;;;18.80;11.25;;;;;;;9.12;73.32;101532.28;5065072;28;20055;-49
2021/04/19 07:24:44;;;;;;;18.77;9.82;;;;;;;9.17;73.11;101529.38;5061158;28;20106;-49
2021/04/19 07:27:12;;;;;;;18.48;11.23;;;;;;;9.21;73.29;101528.75;5050230;28;20048;-50
2021/04/19 07:29:43;;;;;;;17.85;10.52;;;;;;;9.24;73.00;101526.16;5056963;28;20051;-47
2021/04/19 07:32:11;;;;;;;15.90;10.27;;;;;;;9.29;72.99;101526.03;5068094;28;20127;-49
2021/04/19 07:34:37;;;;;;;19.60;11.63;;;;;;;9.33;73.03;101515.16;5056586;28;20044;-47
2021/04/19 07:37:11;;;;;;;21.55;10.98;;;;;;;9.34;72.76;101522.31;5055564;28;20124;-47
2021/04/19 07:39:40;;;;;;;16.73;11.43;;;;;;;9.40;72.61;101518.28;5048684;28;20048;-52
2021/04/19 07:42:09;;;;;;;16.70;10.10;;;;;;;9.45;72.70;101518.94;5051716;28;20052;-46
2021/04/19 07:44:51;;;;;;;19.42;11.48;;;;;;;9.51;72.44;101516.84;5059116;28;20049;-47
2021/04/19 07:47:32;;;;;;;18.02;10.88;;;;;;;9.61;72.41;101522.09;5057937;28;20245;-52
2021/04/19 07:50:08;;;;;;;17.58;11.57;;;;;;;9.71;72.03;101513.53;5048064;28;20044;-46
2021/04/19 07:52:55;;;;;;;19.02;11.55;;;;;;;9.76;72.10;101507.84;5062262;28;20049;-46
2021/04/19 07:55:30;;;;;;;20.00;11.68;;;;;;;9.84;71.96;101506.22;5056024;28;20048;-47
2021/04/19 07:58:08;;;;;;;20.45;11.23;;;;;;;9.96;72.00;101503.63;5062049;28;20094;-46
2021/04/19 08:00:37;;;;;;;20.40;10.65;;;;;;;10.01;71.84;101509.84;5058636;28;20044;-46
2021/04/19 08:03:06;;;;;;;17.73;9.93;;;;;;;10.09;71.79;101516.50;5052927;28;20055;-48
2021/04/19 08:05:53;;;;;;;18.75;10.07;;;;;;;10.21;71.43;101503.72;5069438;28;20071;-49
2021/04/19 08:08:29;;;;;;;18.70;10.43;;;;;;;10.39;71.12;101515.63;5057439;28;20078;-48
2021/04/19 08:11:07;;;;;;;17.52;10.52;;;;;;;10.47;70.61;101508.44;5060244;28;20142;-48
2021/04/19 08:13:34;;;;;;;16.63;10.48;;;;;;;10.53;71.18;101509.91;5058546;28;20048;-47
2021/04/19 08:16:16;;;;;;;13.60;9.55;;;;;;;10.61;70.72;101511.88;5058819;28;20044;-50
2021/04/19 08:18:48;;;;;;;16.38;10.45;;;;;;;10.68;70.71;101501.91;5052434;28;20552;-48
2021/04/19 08:21:24;;;;;;;11.45;8.30;;;;;;;10.78;69.83;101500.75;5052496;28;20048;-47
2021/04/19 08:23:51;;;;;;;15.95;9.77;;;;;;;10.86;70.36;101500.75;5062795;28;20073;-48
2021/04/19 08:26:17;;;;;;;15.00;9.35;;;;;;;11.02;70.37;101492.72;5063960;28;20579;-49
2021/04/19 08:28:46;;;;;;;13.95;8.95;;;;;;;11.13;69.92;101494.00;5062959;28;20095;-46
2021/04/19 08:31:15;;;;;;;11.98;8.73;;;;;;;11.21;69.48;101489.56;5052138;28;20126;-49
2021/04/19 08:33:43;;;;;;;12.45;7.43;;;;;;;11.31;69.43;101480.88;5065941;28;20469;-48
2021/04/19 08:36:13;;;;;;;13.20;9.10;;;;;;;11.55;69.75;101475.56;5058445;28;20125;-48
2021/04/19 08:38:41;;;;;;;12.43;8.35;;;;;;;11.93;69.90;101475.53;5069986;28;20074;-44
2021/04/19 08:41:09;;;;;;;13.25;8.45;;;;;;;12.34;69.43;101474.78;5057638;28;20049;-46
2021/04/19 08:43:38;;;;;;;11.57;7.72;;;;;;;12.80;68.57;101471.72;5052255;28;20049;-47
2021/04/19 08:46:05;;;;;;;9.50;6.93;;;;;;;13.26;67.84;101470.59;5053607;28;20048;-46
2021/04/19 08:48:32;;;;;;;9.52;6.47;;;;;;;13.66;66.52;101468.72;5051213;28;20063;-47
2021/04/19 08:51:03;;;;;;;10.85;8.30;;;;;;;13.93;64.58;101465.22;5059826;28;20093;-45
2021/04/19 08:53:33;;;;;;;11.63;6.30;;;;;;;14.06;64.09;101462.44;5054217;28;20099;-46
2021/04/19 08:56:02;;;;;;;12.10;6.95;;;;;;;14.17;63.66;101461.59;5069947;28;20136;-47
2021/04/19 08:58:30;;;;;;;13.60;6.60;;;;;;;14.17;62.62;101458.78;5056319;28;20037;-51
2021/04/19 09:01:00;;;;;;;10.13;6.57;;;;;;;14.18;60.09;101463.22;5054728;28;20052;-45
2021/04/19 09:03:26;;;;;;;10.68;5.88;;;;;;;14.20;61.52;101460.06;5071185;28;20070;-50
2021/04/19 09:05:53;;;;;;;10.75;6.32;;;;;;;14.31;60.79;101461.19;5060020;28;20120;-47
2021/04/19 09:08:19;;;;;;;10.25;6.45;;;;;;;14.44;60.32;101468.38;5059446;28;20107;-46
2021/04/19 09:11:09;;;;;;;9.60;6.82;;;;;;;14.39;58.61;101458.31;5071583;28;20837;-47
2021/04/19 09:13:44;;;;;;;9.63;5.95;;;;;;;14.28;59.63;101459.13;5035767;28;20494;-49
2021/04/19 09:16:23;;;;;;;10.05;6.18;;;;;;;14.02;59.15;101457.56;5053598;28;20045;-47
2021/04/19 09:19:00;;;;;;;10.00;5.55;;;;;;;13.99;58.24;101457.44;5052417;28;20049;-49
2021/04/19 09:21:37;;;;;;;11.10;5.57;;;;;;;14.03;57.80;101458.38;5054067;28;20401;-47
2021/04/19 09:24:09;;;;;;;13.07;6.85;;;;;;;14.14;57.91;101445.56;5061326;28;20044;-46
2021/04/19 09:26:45;;;;;;;12.63;5.97;;;;;;;14.23;57.74;101457.41;5062261;28;20403;-49
2021/04/19 09:29:37;;;;;;;10.27;5.25;;;;;;;14.25;57.26;101449.50;5061969;28;20493;-47
2021/04/19 09:32:06;;;;;;;8.93;4.60;;;;;;;14.34;57.66;101450.19;5052011;28;20536;-49
2021/04/19 09:34:59;;;;;;;8.15;4.53;;;;;;;14.48;56.09;101447.81;5052353;28;20074;-46
2021/04/19 09:37:35;;;;;;;11.30;5.82;;;;;;;14.60;56.26;101455.31;5068623;28;20063;-50
2021/04/19 09:40:14;;;;;;;9.63;6.45;;;;;;;14.71;57.32;101450.03;5053775;28;20061;-45
2021/04/19 09:42:56;;;;;;;10.27;4.65;;;;;;;14.81;55.70;101441.16;5059253;28;20071;-46
2021/04/19 09:45:41;;;;;;;7.32;4.63;;;;;;;14.72;53.79;101449.66;5050939;28;20049;-46
2021/04/19 09:48:26;;;;;;;6.57;4.00;;;;;;;14.68;53.84;101446.00;5051563;28;20051;-47
2021/04/19 09:50:57;;;;;;;7.55;5.00;;;;;;;14.57;53.72;101445.69;5055927;28;20047;-49
2021/04/19 09:53:25;;;;;;;8.13;4.35;;;;;;;14.61;54.08;101440.22;5062464;28;20091;-49
2021/04/19 09:55:52;;;;;;;6.88;4.03;;;;;;;14.76;53.48;101436.66;5053641;28;20052;-50
2021/04/19 09:58:19;;;;;;;7.43;4.88;;;;;;;15.03;52.53;101440.56;5056231;28;20056;-52
2021/04/19 10:00:54;;;;;;;7.05;4.65;;;;;;;15.27;49.25;101439.59;5069644;28;20076;-48
2021/04/19 10:03:20;;;;;;;7.47;3.92;;;;;;;15.15;51.55;101444.09;5050673;28;20075;-46
2021/04/19 10:05:50;;;;;;;12.52;4.28;;;;;;;15.19;51.17;101441.38;5055720;28;20045;-45
2021/04/19 10:08:18;;;;;;;7.80;4.00;;;;;;;15.49;50.91;101441.78;5052449;28;20052;-48
2021/04/19 10:10:53;;;;;;;10.48;5.57;;;;;;;15.65;50.95;101439.75;5051165;28;20437;-51
2021/04/19 10:13:30;;;;;;;9.07;5.93;;;;;;;15.85;51.70;101435.84;5063098;28;20071;-48
2021/04/19 10:16:11;;;;;;;8.65;5.82;;;;;;;16.21;51.69;101435.47;5055783;28;20072;-47
2021/04/19 10:18:40;;;;;;;12.40;6.63;;;;;;;16.41;52.29;101439.88;5051552;28;20041;-49
2021/04/19 10:21:08;;;;;;;7.47;5.55;;;;;;;16.55;52.47;101421.84;5056089;28;20032;-53
2021/04/19 10:23:41;;;;;;;8.10;5.25;;;;;;;16.61;52.27;101426.75;5080140;28;20116;-49
2021/04/19 10:26:10;;;;;;;10.70;5.25;;;;;;;16.50;52.06;101436.03;5052268;28;20056;-50
2021/04/19 10:28:40;;;;;;;8.45;5.60;;;;;;;16.36;51.96;101431.00;5068744;28;20528;-47
2021/04/19 10:31:21;;;;;;;11.40;5.20;;;;;;;16.16;52.29;101435.75;5068710;28;20106;-47
2021/04/19 10:33:53;;;;;;;8.35;5.85;;;;;;;16.04;52.60;101421.94;5056369;28;20041;-51
2021/04/19 10:36:24;;;;;;;10.38;5.97;;;;;;;15.95;52.48;101429.69;5051535;28;20495;-46
2021/04/19 10:38:53;;;;;;;9.45;5.35;;;;;;;15.87;53.03;101422.34;5053909;28;20051;-47
2021/04/19 10:41:36;;;;;;;12.05;6.82;;;;;;;15.74;53.54;101426.41;5058428;28;20044;-48
2021/04/19 10:44:04;;;;;;;7.72;5.35;;;;;;;15.59;53.89;101427.28;5051756;28;20051;-49
2021/04/19 10:46:36;;;;;;;12.75;5.85;;;;;;;15.58;54.20;101422.84;5052261;28;20041;-52
2021/04/19 10:49:05;;;;;;;9.80;5.32;;;;;;;15.52;54.44;101413.13;5067093;28;20060;-49
2021/04/19 10:51:36;;;;;;;10.93;6.07;;;;;;;15.52;54.54;101425.09;5073206;28;20045;-46
2021/04/19 10:54:06;;;;;;;13.68;6.43;;;;;;;15.48;54.82;101420.63;5066097;28;20444;-47
2021/04/19 10:56:34;;;;;;;10.52;5.93;;;;;;;15.41;54.65;101417.63;5055463;28;20041;-48
2021/04/19 10:59:08;;;;;;;12.15;6.95;;;;;;;15.35;54.08;101414.31;5058834;28;20048;-47
2021/04/19 11:01:38;;;;;;;8.95;5.43;;;;;;;15.27;54.35;101406.13;5058626;28;20037;-47
2021/04/19 11:04:08;;;;;;;11.13;6.07;;;;;;;15.24;54.64;101419.63;5056868;28;20044;-46
2021/04/19 11:06:38;;;;;;;9.02;6.25;;;;;;;15.12;54.80;101416.09;5059361;28;20494;-46
2021/04/19 11:09:16;;;;;;;9.13;6.38;;;;;;;15.00;54.56;101418.97;5064312;28;20060;-46
2021/04/19 11:11:44;;;;;;;9.68;5.90;;;;;;;14.88;55.27;101417.06;5057401;28;20067;-48
2021/04/19 11:14:16;;;;;;;12.23;6.55;;;;;;;14.79;55.54;101418.41;5055051;28;20132;-49
2021/04/19 11:16:52;;;;;;;8.25;5.60;;;;;;;14.72;55.65;101407.88;5071274;28;20037;-45
2021/04/19 11:19:29;;;;;;;11.00;5.70;;;;;;;14.73;55.67;101414.25;5052290;28;20045;-50
2021/04/19 11:21:56;;;;;;;8.63;5.35;;;;;;;14.85;55.87;101409.41;5060572;28;20383;-48
2021/04/19 11:24:35;;;;;;;9.45;6.25;;;;;;;14.81;55.17;101404.91;5057875;28;20045;-46
2021/04/19 11:27:09;;;;;;;13.38;6.32;;;;;;;14.83;55.89;101408.97;5052032;28;20071;-48
2021/04/19 11:29:43;;;;;;;13.82;7.10;;;;;;;14.84;55.73;101405.03;5068113;28;20063;-47
2021/04/19 11:32:30;;;;;;;11.05;6.20;;;;;;;14.85;56.15;101403.84;5064478;28;20092;-45
2021/04/19 11:34:57;;;;;;;11.75;6.15;;;;;;;14.82;56.34;101404.56;5051850;28;20036;-45
2021/04/19 11:37:31;;;;;;;19.90;6.07;;;;;;;14.83;55.88;101406.19;5054301;28;20032;-48